Miguel Oliver — ECLX — position and weather

sailwx.info

Track history (hours):
 
Tides and Currents Weather Stations Pressure Air Temp Water Temp Dewpoint Dewpoint Depression Visibility Wind Speed Wind Dir Waves Ship Positions

Oceanographic research ship Miguel Oliver (Spain)

Ship's website: http://www.mapa.es/es/pesca/pags/miguel_web/index.htm

Last reported at 2017-Oct-17 06:00 UTC. Time now 2017-Oct-17 06:03 UTC.
Position N 43°19' W 002°15'.

Length 70 m; draft 4.8 m.

Type: Other ship. MMSI: 225322000.

Date/timePositionNaut miles runAvg speedWind from/ knotsBaromVisibWave heightAir tempDewpointWater temp
2017-Oct-17 06:00N 43°19' W 002°15'0 0.4
2017-Oct-17 05:30N 43°19' W 002°15'0 0.2
2017-Oct-17 05:00N 43°19' W 002°15'0 0.1
2017-Oct-17 04:30N 43°19' W 002°15'0 0.3
2017-Oct-17 04:00N 43°19' W 002°15'0 0.3
2017-Oct-17 03:30N 43°19' W 002°15'0 0.0
2017-Oct-17 03:00N 43°19' W 002°15'0 0.2
2017-Oct-17 02:30N 43°19' W 002°15'1 2.3
2017-Oct-17 02:00N 43°19' W 002°14'3 6.7
2017-Oct-17 01:30N 43°19' W 002°09'0 0.8
2017-Oct-17 01:00N 43°19' W 002°09'0 0.4
2017-Oct-17 00:30N 43°19' W 002°09'0 0.4
2017-Oct-17 00:00N 43°19' W 002°09'0 0.8
2017-Oct-16 23:30N 43°19' W 002°10'2 3.4
2017-Oct-16 23:00N 43°19' W 002°08'0 0.4
2017-Oct-16 22:30N 43°19' W 002°08'0 0.5
2017-Oct-16 22:00N 43°19' W 002°08'0 0.5
2017-Oct-16 21:30N 43°19' W 002°09'0 0.2
2017-Oct-16 21:00N 43°19' W 002°09'0 0.4
2017-Oct-16 20:30N 43°19' W 002°09'0 0.7
2017-Oct-16 20:00N 43°19' W 002°10'1 1.2
2017-Oct-16 19:30N 43°19' W 002°10'510.4
2017-Oct-16 19:00N 43°24' W 002°08'510.5
2017-Oct-16 18:30N 43°29' W 002°05'0 0.8
2017-Oct-16 18:00N 43°29' W 002°05'4 7.6
2017-Oct-16 17:30N 43°25' W 002°05'3 6.6
2017-Oct-16 17:00N 43°25' W 002°09'2 3.5
2017-Oct-16 16:30N 43°25' W 002°12'3 6.3
2017-Oct-16 16:00N 43°27' W 002°15'1 1.9
2017-Oct-16 15:30N 43°27' W 002°14'2 3.5
2017-Oct-16 15:00N 43°26' W 002°12'4 8.6
2017-Oct-16 14:30N 43°30' W 002°14'3 2.5
2017-Oct-16 13:30N 43°30' W 002°11'5 9.1
2017-Oct-16 13:00N 43°31' W 002°05'1 1.8
2017-Oct-16 12:30N 43°31' W 002°04'2 3.0
2017-Oct-16 12:00N 43°32' W 002°02'2 3.6
2017-Oct-16 11:30N 43°32' W 001°60'2 3.7
2017-Oct-16 11:00N 43°33' W 001°57'1 1.2
2017-Oct-16 10:30N 43°33' W 001°56'1 1.7
2017-Oct-16 10:00N 43°33' W 001°55'2 3.4
2017-Oct-16 09:30N 43°34' W 001°53'4 7.6
2017-Oct-16 09:00N 43°31' W 001°55'510.2
2017-Oct-16 08:30N 43°26' W 001°59'4 7.6
2017-Oct-16 08:00N 43°23' W 002°01'1 2.2
2017-Oct-16 07:30N 43°22' W 002°02'2 3.4
2017-Oct-16 07:01N 43°21' W 002°04'1 2.9
2017-Oct-16 06:30N 43°22' W 002°06'0 0.4
2017-Oct-16 06:00N 43°22' W 002°06'0 0.9
2017-Oct-16 05:30N 43°22' W 002°06'0 0.7
2017-Oct-16 05:00N 43°21' W 002°06'0 0.6
2017-Oct-16 04:30N 43°21' W 002°06'0 0.6
2017-Oct-16 04:00N 43°21' W 002°05'0 0.7
2017-Oct-16 03:30N 43°20' W 002°05'1 1.1
2017-Oct-16 03:00N 43°20' W 002°05'0 0.4
2017-Oct-16 02:30N 43°20' W 002°05'2 4.4
2017-Oct-16 02:00N 43°21' W 002°08'3 5.6
2017-Oct-16 01:30N 43°21' W 002°11'1 1.8
2017-Oct-16 01:00N 43°22' W 002°12'1 1.2
2017-Oct-16 00:30N 43°21' W 002°12'1 1.2
2017-Oct-16 00:00N 43°21' W 002°11'1 1.3
2017-Oct-15 23:30N 43°20' W 002°11'1 1.3
2017-Oct-15 23:00N 43°20' W 002°11'1 1.1
2017-Oct-15 22:30N 43°19' W 002°10'1 2.4
2017-Oct-15 22:00N 43°20' W 002°10'2 3.5
2017-Oct-15 21:30N 43°22' W 002°09'2 3.0
2017-Oct-15 21:00N 43°22' W 002°11'510.0
2017-Oct-15 20:30N 43°23' W 002°17'510.0
2017-Oct-15 20:00N 43°24' W 002°24'5 9.9
2017-Oct-15 19:30N 43°26' W 002°30'5 9.8
2017-Oct-15 19:00N 43°27' W 002°37'5 9.9
2017-Oct-15 18:30N 43°28' W 002°44'510.7
2017-Oct-15 18:00N 43°29' W 002°51'510.2
2017-Oct-15 17:30N 43°29' W 002°58'510.1
2017-Oct-15 17:00N 43°28' W 003°05'510.1
2017-Oct-15 16:30N 43°28' W 003°12'510.0
2017-Oct-15 16:00N 43°29' W 003°19'3 6.6
2017-Oct-15 15:30N 43°29' W 003°23'0 0.3
2017-Oct-15 15:00N 43°28' W 003°23'0 0.4
2017-Oct-15 14:00N 43°28' W 003°24'0 0.3
2017-Oct-15 13:30N 43°28' W 003°24'0 0.3
2017-Oct-15 13:00N 43°28' W 003°24'1 2.4
2017-Oct-15 12:30N 43°29' W 003°24'510.1
2017-Oct-15 12:00N 43°33' W 003°19'2 4.5
2017-Oct-15 11:30N 43°35' W 003°17'1 2.1
2017-Oct-15 11:00N 43°34' W 003°19'2 3.7
2017-Oct-15 10:30N 43°34' W 003°21'3 6.5
2017-Oct-15 10:00N 43°30' W 003°21'1 2.6
2017-Oct-15 09:30N 43°29' W 003°21'1 2.9
2017-Oct-15 09:00N 43°28' W 003°20'1 2.4
2017-Oct-15 08:30N 43°27' W 003°18'2 4.1
2017-Oct-15 08:00N 43°27' W 003°21'1 2.0
2017-Oct-15 07:30N 43°27' W 003°22'2 3.6
2017-Oct-15 07:01N 43°28' W 003°24'1 1.6
2017-Oct-15 06:30N 43°29' W 003°24'2 4.7
2017-Oct-15 06:00N 43°30' W 003°26'2 4.5
2017-Oct-15 05:30N 43°32' W 003°28'0 0.7
2017-Oct-15 05:00N 43°32' W 003°29'0 0.4
2017-Oct-15 04:30N 43°31' W 003°29'0 0.3
2017-Oct-15 04:00N 43°31' W 003°29'0 0.3
2017-Oct-15 03:30N 43°31' W 003°29'0 0.3
2017-Oct-15 03:00N 43°31' W 003°29'0 0.5
2017-Oct-15 02:30N 43°31' W 003°30'0 0.4
2017-Oct-15 02:00N 43°31' W 003°30'0 0.3
2017-Oct-15 01:30N 43°31' W 003°30'0 0.9
2017-Oct-15 01:00N 43°31' W 003°30'0 0.6
2017-Oct-15 00:30N 43°31' W 003°31'0 0.5
2017-Oct-15 00:00N 43°31' W 003°31'0 0.7
2017-Oct-14 23:30N 43°31' W 003°31'0 0.9
2017-Oct-14 23:00N 43°32' W 003°31'0 0.8
2017-Oct-14 22:30N 43°32' W 003°32'3 5.5
2017-Oct-14 22:00N 43°32' W 003°36'510.6
2017-Oct-14 21:30N 43°32' W 003°43'510.2
2017-Oct-14 21:00N 43°32' W 003°50'510.6
2017-Oct-14 20:30N 43°32' W 003°57'510.4
2017-Oct-14 20:00N 43°32' W 004°05'510.5
2017-Oct-14 19:30N 43°32' W 004°12'510.3
2017-Oct-14 19:00N 43°31' W 004°19'5 9.9
2017-Oct-14 18:30N 43°33' W 004°25'510.3
2017-Oct-14 18:00N 43°34' W 004°32'3 6.9
2017-Oct-14 17:30N 43°35' W 004°37'3 6.8
2017-Oct-14 17:00N 43°35' W 004°42'1 2.9
2017-Oct-14 16:30N 43°35' W 004°43'3 6.1
2017-Oct-14 16:00N 43°38' W 004°40'4 7.3
2017-Oct-14 15:30N 43°38' W 004°45'2 4.4
2017-Oct-14 15:00N 43°39' W 004°48'2 1.4
2017-Oct-14 13:23N 43°37' W 004°50'3 9.0
2017-Oct-14 13:00N 43°34' W 004°50'1 1.3
2017-Oct-14 12:30N 43°34' W 004°50'2 3.4
2017-Oct-14 11:59N 43°35' W 004°53'1 0.8
2017-Oct-14 11:19N 43°35' W 004°53'6 2.7
2017-Oct-14 09:12N 43°38' W 005°00'1 3.5
2017-Oct-14 08:59N 43°38' W 005°01'2 4.9
2017-Oct-14 08:29N 43°41' W 005°00'3 5.8
2017-Oct-14 07:59N 43°43' W 004°59'1 2.1
2017-Oct-14 07:29N 43°44' W 005°00'2 3.9
2017-Oct-14 07:00N 43°45' W 005°02'3 5.5
2017-Oct-14 06:29N 43°42' W 005°02'4 8.0
2017-Oct-14 05:57N 43°38' W 005°02'4 8.1
2017-Oct-14 05:28N 43°34' W 005°01'6 0.6
2017-Oct-13 19:37N 43°39' W 004°58'1 3.3
2017-Oct-13 19:21N 43°40' W 004°58'0 0.0
2017-Oct-13 18:58N 43°40' W 004°58'3 6.4
2017-Oct-13 18:26N 43°42' W 004°54'1 2.6
2017-Oct-13 18:00N 43°43' W 004°55'2 4.8
2017-Oct-13 17:30N 43°45' W 004°57'2 3.8
2017-Oct-13 16:57N 43°47' W 004°55'1 2.4
2017-Oct-13 16:26N 43°47' W 004°54'1 1.9
2017-Oct-13 15:59N 43°48' W 004°55'510.5
2017-Oct-13 15:30N 43°49' W 005°02'1 0.6
2017-Oct-13 14:13N 43°49' W 005°01'1 2.4
2017-Oct-13 13:59N 43°49' W 005°00'2 3.2
2017-Oct-13 13:30N 43°48' W 004°59'6 2.4
2017-Oct-13 11:08N 43°45' W 005°06'1 4.6
2017-Oct-13 10:51N 43°44' W 005°07'2 4.3
2017-Oct-13 10:22N 43°42' W 005°09'0 0.8
2017-Oct-13 09:56N 43°42' W 005°09'1 2.5
2017-Oct-13 09:28N 43°42' W 005°11'3 5.3
2017-Oct-13 08:52N 43°41' W 005°15'410.4
2017-Oct-13 08:28N 43°39' W 005°20'3 6.3
2017-Oct-13 08:00N 43°37' W 005°23'1 2.0
2017-Oct-13 07:30N 43°38' W 005°24'2 3.4
2017-Oct-13 07:00N 43°39' W 005°26'2 3.1
2017-Oct-13 06:30N 43°39' W 005°28'2 3.4
2017-Oct-13 06:00N 43°38' W 005°26'2 3.6
2017-Oct-13 05:30N 43°37' W 005°25'2 3.5
2017-Oct-13 04:59N 43°35' W 005°23'2 3.5
2017-Oct-13 04:24N 43°34' W 005°21'1 3.1
2017-Oct-13 04:00N 43°33' W 005°20'0 0.4
2017-Oct-13 03:02N 43°33' W 005°20'0 2.2
2017-Oct-13 02:57N 43°33' W 005°20'0 0.2
2017-Oct-13 02:30N 43°33' W 005°20'0 0.4
2017-Oct-13 01:51N 43°33' W 005°20'0 0.3
2017-Oct-13 01:27N 43°33' W 005°20'0 0.6
2017-Oct-13 01:00N 43°33' W 005°20'0 0.2
2017-Oct-13 00:29N 43°33' W 005°20'0 0.2
2017-Oct-12 23:58N 43°33' W 005°20'0 1.0
2017-Oct-12 23:30N 43°33' W 005°19'1 1.8
2017-Oct-12 23:00N 43°33' W 005°21'0 0.0
2017-Oct-12 22:30N 43°33' W 005°21'0 0.2
2017-Oct-12 22:00N 43°33' W 005°20'0 0.4
2017-Oct-12 21:30N 43°33' W 005°20'0 0.5
2017-Oct-12 20:59N 43°33' W 005°20'0 0.4
2017-Oct-12 20:30N 43°33' W 005°20'0 0.4
2017-Oct-12 20:00N 43°33' W 005°20'3 6.7
2017-Oct-12 19:30N 43°36' W 005°22'5 9.3
2017-Oct-12 19:00N 43°40' W 005°25'3 5.2
2017-Oct-12 18:27N 43°38' W 005°23'1 2.9
2017-Oct-12 17:57N 43°38' W 005°21'2 5.0
2017-Oct-12 17:29N 43°40' W 005°18'3 7.2
2017-Oct-12 17:00N 43°42' W 005°22'3 5.1
2017-Oct-12 16:29N 43°45' W 005°21'7 8.8
2017-Oct-12 15:41N 43°52' W 005°21'0 1.2
2017-Oct-12 15:30N 43°52' W 005°21'1 2.8
2017-Oct-12 15:00N 43°53' W 005°23'3 2.4
2017-Oct-12 13:45N 43°52' W 005°19'5 8.5
2017-Oct-12 13:09N 43°47' W 005°22'0 2.2
2017-Oct-12 12:56N 43°47' W 005°22'1 1.7
2017-Oct-12 12:30N 43°46' W 005°22'2 3.3
2017-Oct-12 11:59N 43°45' W 005°24'2 3.5
2017-Oct-12 11:30N 43°46' W 005°27'1 2.3
2017-Oct-12 11:00N 43°44' W 005°26'2 5.0
2017-Oct-12 10:30N 43°43' W 005°29'1 2.9
2017-Oct-12 10:00N 43°41' W 005°30'1 1.7
2017-Oct-12 09:30N 43°42' W 005°31'2 3.5
2017-Oct-12 09:00N 43°42' W 005°33'4 8.4
2017-Oct-12 08:30N 43°39' W 005°37'0 0.7
2017-Oct-12 08:00N 43°39' W 005°38'1 2.1
2017-Oct-12 07:30N 43°40' W 005°39'2 3.4
2017-Oct-12 07:00N 43°40' W 005°42'1 1.3
2017-Oct-12 06:30N 43°41' W 005°42'2 3.8
2017-Oct-12 06:00N 43°40' W 005°40'2 3.8
2017-Oct-12 05:30N 43°39' W 005°38'2 3.5
2017-Oct-12 05:00N 43°38' W 005°36'2 3.6
2017-Oct-12 04:30N 43°37' W 005°34'2 3.3
2017-Oct-12 04:00N 43°35' W 005°32'0 0.6
2017-Oct-12 03:30N 43°35' W 005°32'0 0.4
2017-Oct-12 03:00N 43°35' W 005°33'0 0.7
2017-Oct-12 02:30N 43°35' W 005°33'1 1.4
2017-Oct-12 02:00N 43°36' W 005°32'0 0.6
2017-Oct-12 01:30N 43°36' W 005°33'0 0.3
2017-Oct-12 01:00N 43°35' W 005°33'0 0.2
2017-Oct-12 00:30N 43°35' W 005°33'0 0.3
2017-Oct-11 23:59N 43°35' W 005°33'0 0.4
2017-Oct-11 23:30N 43°35' W 005°33'0 0.3
2017-Oct-11 23:00N 43°35' W 005°33'0 0.2
2017-Oct-11 22:30N 43°35' W 005°33'1 1.8
2017-Oct-11 22:00N 43°35' W 005°32'0 0.5
2017-Oct-11 21:30N 43°35' W 005°32'0 0.3
2017-Oct-11 21:00N 43°35' W 005°32'0 0.3
2017-Oct-11 20:30N 43°35' W 005°33'1 2.9
2017-Oct-11 20:00N 43°36' W 005°34'5 9.8
2017-Oct-11 19:30N 43°40' W 005°37'510.0
2017-Oct-11 19:00N 43°45' W 005°40'3 6.4
2017-Oct-11 18:30N 43°47' W 005°43'4 8.0
2017-Oct-11 18:00N 43°43' W 005°43'2 4.5
2017-Oct-11 17:30N 43°41' W 005°43'3 5.9
2017-Oct-11 17:00N 43°38' W 005°44'5 0.3
2017-Oct-10 23:56N 43°34' W 005°42'0 0.0
2017-Oct-10 23:20N 43°34' W 005°42'0 0.0
2017-Oct-10 22:57N 43°34' W 005°42'0 0.0
2017-Oct-10 22:27N 43°34' W 005°42'0 0.0
2017-Oct-10 17:57N 43°34' W 005°42'2 4.5
2017-Oct-10 17:30N 43°35' W 005°40'5 9.7
2017-Oct-10 17:00N 43°40' W 005°39'510.3
2017-Oct-10 16:30N 43°45' W 005°36'510.1
2017-Oct-10 16:00N 43°49' W 005°34'610.5
2017-Oct-10 15:29N 43°55' W 005°31'1 3.1
2017-Oct-10 15:00N 43°56' W 005°31'2 2.0
2017-Oct-10 13:59N 43°56' W 005°34'2 4.1
2017-Oct-10 13:30N 43°56' W 005°36'2 4.8
2017-Oct-10 13:00N 43°54' W 005°37'2 2.1
2017-Oct-10 12:14N 43°54' W 005°35'1 3.7
2017-Oct-10 11:57N 43°53' W 005°34'1 1.6
2017-Oct-10 11:30N 43°53' W 005°33'2 4.0
2017-Oct-10 11:00N 43°51' W 005°33'3 5.4
2017-Oct-10 10:24N 43°48' W 005°32'0 1.2
2017-Oct-10 10:00N 43°48' W 005°33'1 2.9
2017-Oct-10 09:30N 43°47' W 005°35'3 5.7
2017-Oct-10 09:00N 43°48' W 005°39'6 9.7
2017-Oct-10 08:24N 43°51' W 005°45'0 0.8
2017-Oct-10 07:56N 43°51' W 005°45'1 2.4
2017-Oct-10 07:30N 43°51' W 005°47'2 2.9
2017-Oct-10 06:57N 43°50' W 005°49'1 1.7
2017-Oct-10 06:29N 43°51' W 005°49'2 3.9
2017-Oct-10 05:59N 43°49' W 005°50'3 6.2
2017-Oct-10 05:29N 43°46' W 005°52'3 6.1
2017-Oct-10 05:00N 43°43' W 005°53'3 6.6
2017-Oct-10 04:29N 43°40' W 005°54'1 2.4
2017-Oct-10 03:58N 43°39' W 005°54'0 0.2
2017-Oct-10 03:30N 43°39' W 005°54'0 0.2
2017-Oct-10 02:56N 43°39' W 005°55'0 0.1
2017-Oct-10 01:54N 43°39' W 005°55'0 0.2
2017-Oct-10 01:30N 43°38' W 005°55'0 0.2
2017-Oct-10 00:59N 43°38' W 005°55'0 0.3
2017-Oct-10 00:19N 43°39' W 005°55'1 1.2
2017-Oct-09 23:52N 43°39' W 005°55'0 0.3
2017-Oct-09 23:30N 43°39' W 005°55'0 0.2
2017-Oct-09 23:00N 43°39' W 005°55'0 0.1
2017-Oct-09 22:23N 43°39' W 005°55'0 0.6
2017-Oct-09 21:58N 43°39' W 005°55'1 2.6
2017-Oct-09 21:27N 43°39' W 005°56'0 0.2
2017-Oct-09 20:56N 43°39' W 005°56'0 0.3
2017-Oct-09 19:58N 43°39' W 005°56'0 0.3
2017-Oct-09 19:25N 43°39' W 005°56'0 0.6
2017-Oct-09 19:00N 43°39' W 005°56'4 7.0
2017-Oct-09 18:29N 43°40' W 006°00'3 6.1
2017-Oct-09 18:00N 43°43' W 006°01'2 3.6
2017-Oct-09 17:26N 43°45' W 006°00'3 5.0
2017-Oct-09 16:54N 43°48' W 006°01'2 5.6
2017-Oct-09 16:29N 43°50' W 005°60'2 3.6
2017-Oct-09 16:00N 43°50' W 006°02'5 9.8
2017-Oct-09 15:30N 43°51' W 006°09'3 6.0
2017-Oct-09 14:59N 43°52' W 006°13'1 1.0
2017-Oct-09 14:13N 43°51' W 006°13'1 3.0
2017-Oct-09 13:53N 43°50' W 006°12'2 4.9
2017-Oct-09 13:30N 43°49' W 006°11'3 6.4
2017-Oct-09 13:00N 43°47' W 006°07'2 2.5
2017-Oct-09 12:01N 43°46' W 006°04'0 5.2
2017-Oct-09 12:00N 43°46' W 006°04'2 3.5
2017-Oct-09 11:30N 43°44' W 006°05'1 2.7
2017-Oct-09 11:00N 43°43' W 006°06'1 2.7
2017-Oct-09 10:30N 43°41' W 006°06'0 0.7
2017-Oct-09 10:00N 43°41' W 006°06'0 0.7
2017-Oct-09 09:30N 43°41' W 006°06'2 3.1
2017-Oct-09 09:00N 43°41' W 006°03'2 4.1
2017-Oct-09 08:30N 43°39' W 006°03'2 4.7
2017-Oct-09 08:00N 43°37' W 006°05'1 2.4
2017-Oct-09 07:30N 43°36' W 006°06'2 3.6
2017-Oct-09 07:00N 43°35' W 006°07'2 3.1
2017-Oct-09 06:26N 43°36' W 006°06'1 1.2
2017-Oct-09 06:00N 43°37' W 006°06'0 0.6
2017-Oct-09 05:30N 43°36' W 006°06'0 0.5
2017-Oct-09 05:00N 43°36' W 006°06'0 0.4
2017-Oct-09 04:30N 43°36' W 006°06'0 0.4
2017-Oct-09 04:00N 43°36' W 006°06'0 0.3
2017-Oct-09 03:30N 43°35' W 006°06'0 0.5
2017-Oct-09 02:57N 43°35' W 006°05'2 1.5
2017-Oct-09 01:55N 43°36' W 006°04'3 6.6
2017-Oct-09 01:25N 43°38' W 005°60'0 0.7
2017-Oct-09 01:00N 43°38' W 005°59'0 0.2
2017-Oct-09 00:30N 43°38' W 005°60'0 0.2
2017-Oct-09 00:00N 43°38' W 005°60'0 0.4
2017-Oct-08 23:30N 43°38' W 005°60'0 0.4
2017-Oct-08 23:00N 43°38' W 006°00'0 0.4
2017-Oct-08 22:30N 43°38' W 006°00'0 0.4
2017-Oct-08 22:00N 43°38' W 006°01'0 0.3
2017-Oct-08 21:29N 43°37' W 006°01'0 0.3
2017-Oct-08 21:00N 43°37' W 006°01'0 0.1
2017-Oct-08 20:30N 43°37' W 006°01'0 0.2
2017-Oct-08 20:00N 43°37' W 006°01'0 0.3
2017-Oct-08 19:30N 43°37' W 006°01'0 0.3
2017-Oct-08 18:59N 43°37' W 006°01'0 0.4
2017-Oct-08 18:30N 43°37' W 006°01'0 0.4
2017-Oct-08 18:00N 43°37' W 006°01'2 4.0
2017-Oct-08 17:30N 43°37' W 006°03'4 8.6
2017-Oct-08 17:00N 43°38' W 006°09'3 5.1
2017-Oct-08 16:30N 43°38' W 006°13'510.2
2017-Oct-08 16:00N 43°38' W 006°20'2 4.6
2017-Oct-08 15:30N 43°39' W 006°23'4 8.7
2017-Oct-08 15:00N 43°42' W 006°19'1 2.1
2017-Oct-08 14:30N 43°42' W 006°17'2 3.7
2017-Oct-08 13:51N 43°41' W 006°14'3 9.1
2017-Oct-08 13:30N 43°44' W 006°16'2 4.5
2017-Oct-08 13:00N 43°46' W 006°17'1 1.7
2017-Oct-08 12:30N 43°46' W 006°19'2 3.5
2017-Oct-08 12:00N 43°46' W 006°21'1 1.9
2017-Oct-08 11:30N 43°46' W 006°22'1 2.0
2017-Oct-08 11:00N 43°45' W 006°23'2 3.8
2017-Oct-08 10:30N 43°44' W 006°24'1 1.1
2017-Oct-08 09:58N 43°43' W 006°24'1 2.7
2017-Oct-08 09:30N 43°43' W 006°26'2 4.9
2017-Oct-08 09:00N 43°44' W 006°29'4 8.8
2017-Oct-08 08:30N 43°47' W 006°33'13 2.0
2017-Oct-08 02:00N 43°35' W 006°39'0 0.4
2017-Oct-08 01:13N 43°35' W 006°39'0 0.2
2017-Oct-08 01:00N 43°35' W 006°39'0 0.3
2017-Oct-08 00:30N 43°35' W 006°39'0 0.4
2017-Oct-08 00:00N 43°35' W 006°39'3 5.1
2017-Oct-07 23:28N 43°35' W 006°43'1 1.4
2017-Oct-07 22:56N 43°35' W 006°44'0 0.1
2017-Oct-07 22:04N 43°35' W 006°44'0 0.0
2017-Oct-07 22:00N 43°35' W 006°44'0 0.1
2017-Oct-07 20:59N 43°35' W 006°44'0 0.1
2017-Oct-07 20:24N 43°35' W 006°44'1 0.8
2017-Oct-07 19:06N 43°36' W 006°44'1 6.5
2017-Oct-07 19:00N 43°36' W 006°45'1 1.8
2017-Oct-07 18:30N 43°37' W 006°45'1 2.8
2017-Oct-07 18:00N 43°39' W 006°45'4 7.9
2017-Oct-07 17:30N 43°43' W 006°45'6 7.2
2017-Oct-07 16:44N 43°48' W 006°45'2 9.7
2017-Oct-07 16:30N 43°50' W 006°45'2 4.2
2017-Oct-07 16:00N 43°53' W 006°45'5 9.1
2017-Oct-07 15:30N 43°57' W 006°47'2 4.1
2017-Oct-07 15:00N 43°59' W 006°48'1 1.7
2017-Oct-07 14:30N 43°58' W 006°47'1 2.9
2017-Oct-07 14:00N 43°58' W 006°45'3 6.9
2017-Oct-07 13:30N 43°56' W 006°41'3 5.3
2017-Oct-07 13:00N 43°54' W 006°39'1 2.6
2017-Oct-07 12:30N 43°53' W 006°37'2 3.8
2017-Oct-07 12:00N 43°52' W 006°35'1 2.5
2017-Oct-07 11:25N 43°54' W 006°35'1 1.4
2017-Oct-07 10:57N 43°54' W 006°34'  
Track history (hours):
 
Tides and Currents Weather Stations Pressure Air Temp Water Temp Dewpoint Dewpoint Depression Visibility Wind Speed Wind Dir Waves Ship Positions

Oceanographic research ship Miguel Oliver (Spain)

Ship's website: http://www.mapa.es/es/pesca/pags/miguel_web/index.htm

Last reported at 2017-Oct-17 06:00 UTC. Time now 2017-Oct-17 06:03 UTC.
Position N 43°19' W 002°15'.

Length 70 m; draft 4.8 m.

Type: Other ship. MMSI: 225322000.

Date/timePositionNaut miles runAvg speedWind from/ knotsBaromVisibWave heightAir tempDewpointWater temp
2017-Oct-17 06:00N 43°19' W 002°15'0 0.4
2017-Oct-17 05:30N 43°19' W 002°15'0 0.2
2017-Oct-17 05:00N 43°19' W 002°15'0 0.1
2017-Oct-17 04:30N 43°19' W 002°15'0 0.3
2017-Oct-17 04:00N 43°19' W 002°15'0 0.3
2017-Oct-17 03:30N 43°19' W 002°15'0 0.0
2017-Oct-17 03:00N 43°19' W 002°15'0 0.2
2017-Oct-17 02:30N 43°19' W 002°15'1 2.3
2017-Oct-17 02:00N 43°19' W 002°14'3 6.7
2017-Oct-17 01:30N 43°19' W 002°09'0 0.8
2017-Oct-17 01:00N 43°19' W 002°09'0 0.4
2017-Oct-17 00:30N 43°19' W 002°09'0 0.4
2017-Oct-17 00:00N 43°19' W 002°09'0 0.8
2017-Oct-16 23:30N 43°19' W 002°10'2 3.4
2017-Oct-16 23:00N 43°19' W 002°08'0 0.4
2017-Oct-16 22:30N 43°19' W 002°08'0 0.5
2017-Oct-16 22:00N 43°19' W 002°08'0 0.5
2017-Oct-16 21:30N 43°19' W 002°09'0 0.2
2017-Oct-16 21:00N 43°19' W 002°09'0 0.4
2017-Oct-16 20:30N 43°19' W 002°09'0 0.7
2017-Oct-16 20:00N 43°19' W 002°10'1 1.2
2017-Oct-16 19:30N 43°19' W 002°10'510.4
2017-Oct-16 19:00N 43°24' W 002°08'510.5
2017-Oct-16 18:30N 43°29' W 002°05'0 0.8
2017-Oct-16 18:00N 43°29' W 002°05'4 7.6
2017-Oct-16 17:30N 43°25' W 002°05'3 6.6
2017-Oct-16 17:00N 43°25' W 002°09'2 3.5
2017-Oct-16 16:30N 43°25' W 002°12'3 6.3
2017-Oct-16 16:00N 43°27' W 002°15'1 1.9
2017-Oct-16 15:30N 43°27' W 002°14'2 3.5
2017-Oct-16 15:00N 43°26' W 002°12'4 8.6
2017-Oct-16 14:30N 43°30' W 002°14'3 2.5
2017-Oct-16 13:30N 43°30' W 002°11'5 9.1
2017-Oct-16 13:00N 43°31' W 002°05'1 1.8
2017-Oct-16 12:30N 43°31' W 002°04'2 3.0
2017-Oct-16 12:00N 43°32' W 002°02'2 3.6
2017-Oct-16 11:30N 43°32' W 001°60'2 3.7
2017-Oct-16 11:00N 43°33' W 001°57'1 1.2
2017-Oct-16 10:30N 43°33' W 001°56'1 1.7
2017-Oct-16 10:00N 43°33' W 001°55'2 3.4
2017-Oct-16 09:30N 43°34' W 001°53'4 7.6
2017-Oct-16 09:00N 43°31' W 001°55'510.2
2017-Oct-16 08:30N 43°26' W 001°59'4 7.6
2017-Oct-16 08:00N 43°23' W 002°01'1 2.2
2017-Oct-16 07:30N 43°22' W 002°02'2 3.4
2017-Oct-16 07:01N 43°21' W 002°04'1 2.9
2017-Oct-16 06:30N 43°22' W 002°06'0 0.4
2017-Oct-16 06:00N 43°22' W 002°06'0 0.9
2017-Oct-16 05:30N 43°22' W 002°06'0 0.7
2017-Oct-16 05:00N 43°21' W 002°06'0 0.6
2017-Oct-16 04:30N 43°21' W 002°06'0 0.6
2017-Oct-16 04:00N 43°21' W 002°05'0 0.7
2017-Oct-16 03:30N 43°20' W 002°05'1 1.1
2017-Oct-16 03:00N 43°20' W 002°05'0 0.4
2017-Oct-16 02:30N 43°20' W 002°05'2 4.4
2017-Oct-16 02:00N 43°21' W 002°08'3 5.6
2017-Oct-16 01:30N 43°21' W 002°11'1 1.8
2017-Oct-16 01:00N 43°22' W 002°12'1 1.2
2017-Oct-16 00:30N 43°21' W 002°12'1 1.2
2017-Oct-16 00:00N 43°21' W 002°11'1 1.3
2017-Oct-15 23:30N 43°20' W 002°11'1 1.3
2017-Oct-15 23:00N 43°20' W 002°11'1 1.1
2017-Oct-15 22:30N 43°19' W 002°10'1 2.4
2017-Oct-15 22:00N 43°20' W 002°10'2 3.5
2017-Oct-15 21:30N 43°22' W 002°09'2 3.0
2017-Oct-15 21:00N 43°22' W 002°11'510.0
2017-Oct-15 20:30N 43°23' W 002°17'510.0
2017-Oct-15 20:00N 43°24' W 002°24'5 9.9
2017-Oct-15 19:30N 43°26' W 002°30'5 9.8
2017-Oct-15 19:00N 43°27' W 002°37'5 9.9
2017-Oct-15 18:30N 43°28' W 002°44'510.7
2017-Oct-15 18:00N 43°29' W 002°51'510.2
2017-Oct-15 17:30N 43°29' W 002°58'510.1
2017-Oct-15 17:00N 43°28' W 003°05'510.1
2017-Oct-15 16:30N 43°28' W 003°12'510.0
2017-Oct-15 16:00N 43°29' W 003°19'3 6.6
2017-Oct-15 15:30N 43°29' W 003°23'0 0.3
2017-Oct-15 15:00N 43°28' W 003°23'0 0.4
2017-Oct-15 14:00N 43°28' W 003°24'0 0.3
2017-Oct-15 13:30N 43°28' W 003°24'0 0.3
2017-Oct-15 13:00N 43°28' W 003°24'1 2.4
2017-Oct-15 12:30N 43°29' W 003°24'510.1
2017-Oct-15 12:00N 43°33' W 003°19'2 4.5
2017-Oct-15 11:30N 43°35' W 003°17'1 2.1
2017-Oct-15 11:00N 43°34' W 003°19'2 3.7
2017-Oct-15 10:30N 43°34' W 003°21'3 6.5
2017-Oct-15 10:00N 43°30' W 003°21'1 2.6
2017-Oct-15 09:30N 43°29' W 003°21'1 2.9
2017-Oct-15 09:00N 43°28' W 003°20'1 2.4
2017-Oct-15 08:30N 43°27' W 003°18'2 4.1
2017-Oct-15 08:00N 43°27' W 003°21'1 2.0
2017-Oct-15 07:30N 43°27' W 003°22'2 3.6
2017-Oct-15 07:01N 43°28' W 003°24'1 1.6
2017-Oct-15 06:30N 43°29' W 003°24'2 4.7
2017-Oct-15 06:00N 43°30' W 003°26'2 4.5
2017-Oct-15 05:30N 43°32' W 003°28'0 0.7
2017-Oct-15 05:00N 43°32' W 003°29'0 0.4
2017-Oct-15 04:30N 43°31' W 003°29'0 0.3
2017-Oct-15 04:00N 43°31' W 003°29'0 0.3
2017-Oct-15 03:30N 43°31' W 003°29'0 0.3
2017-Oct-15 03:00N 43°31' W 003°29'0 0.5
2017-Oct-15 02:30N 43°31' W 003°30'0 0.4
2017-Oct-15 02:00N 43°31' W 003°30'0 0.3
2017-Oct-15 01:30N 43°31' W 003°30'0 0.9
2017-Oct-15 01:00N 43°31' W 003°30'0 0.6
2017-Oct-15 00:30N 43°31' W 003°31'0 0.5
2017-Oct-15 00:00N 43°31' W 003°31'0 0.7
2017-Oct-14 23:30N 43°31' W 003°31'0 0.9
2017-Oct-14 23:00N 43°32' W 003°31'0 0.8
2017-Oct-14 22:30N 43°32' W 003°32'3 5.5
2017-Oct-14 22:00N 43°32' W 003°36'510.6
2017-Oct-14 21:30N 43°32' W 003°43'510.2
2017-Oct-14 21:00N 43°32' W 003°50'510.6
2017-Oct-14 20:30N 43°32' W 003°57'510.4
2017-Oct-14 20:00N 43°32' W 004°05'510.5
2017-Oct-14 19:30N 43°32' W 004°12'510.3
2017-Oct-14 19:00N 43°31' W 004°19'5 9.9
2017-Oct-14 18:30N 43°33' W 004°25'510.3
2017-Oct-14 18:00N 43°34' W 004°32'3 6.9
2017-Oct-14 17:30N 43°35' W 004°37'3 6.8
2017-Oct-14 17:00N 43°35' W 004°42'1 2.9
2017-Oct-14 16:30N 43°35' W 004°43'3 6.1
2017-Oct-14 16:00N 43°38' W 004°40'4 7.3
2017-Oct-14 15:30N 43°38' W 004°45'2 4.4
2017-Oct-14 15:00N 43°39' W 004°48'2 1.4
2017-Oct-14 13:23N 43°37' W 004°50'3 9.0
2017-Oct-14 13:00N 43°34' W 004°50'1 1.3
2017-Oct-14 12:30N 43°34' W 004°50'2 3.4
2017-Oct-14 11:59N 43°35' W 004°53'1 0.8
2017-Oct-14 11:19N 43°35' W 004°53'6 2.7
2017-Oct-14 09:12N 43°38' W 005°00'1 3.5
2017-Oct-14 08:59N 43°38' W 005°01'2 4.9
2017-Oct-14 08:29N 43°41' W 005°00'3 5.8
2017-Oct-14 07:59N 43°43' W 004°59'1 2.1
2017-Oct-14 07:29N 43°44' W 005°00'2 3.9
2017-Oct-14 07:00N 43°45' W 005°02'3 5.5
2017-Oct-14 06:29N 43°42' W 005°02'4 8.0
2017-Oct-14 05:57N 43°38' W 005°02'4 8.1
2017-Oct-14 05:28N 43°34' W 005°01'6 0.6
2017-Oct-13 19:37N 43°39' W 004°58'1 3.3
2017-Oct-13 19:21N 43°40' W 004°58'0 0.0
2017-Oct-13 18:58N 43°40' W 004°58'3 6.4
2017-Oct-13 18:26N 43°42' W 004°54'1 2.6
2017-Oct-13 18:00N 43°43' W 004°55'2 4.8
2017-Oct-13 17:30N 43°45' W 004°57'2 3.8
2017-Oct-13 16:57N 43°47' W 004°55'1 2.4
2017-Oct-13 16:26N 43°47' W 004°54'1 1.9
2017-Oct-13 15:59N 43°48' W 004°55'510.5
2017-Oct-13 15:30N 43°49' W 005°02'1 0.6
2017-Oct-13 14:13N 43°49' W 005°01'1 2.4
2017-Oct-13 13:59N 43°49' W 005°00'2 3.2
2017-Oct-13 13:30N 43°48' W 004°59'6 2.4
2017-Oct-13 11:08N 43°45' W 005°06'1 4.6
2017-Oct-13 10:51N 43°44' W 005°07'2 4.3
2017-Oct-13 10:22N 43°42' W 005°09'0 0.8
2017-Oct-13 09:56N 43°42' W 005°09'1 2.5
2017-Oct-13 09:28N 43°42' W 005°11'3 5.3
2017-Oct-13 08:52N 43°41' W 005°15'410.4
2017-Oct-13 08:28N 43°39' W 005°20'3 6.3
2017-Oct-13 08:00N 43°37' W 005°23'1 2.0
2017-Oct-13 07:30N 43°38' W 005°24'2 3.4
2017-Oct-13 07:00N 43°39' W 005°26'2 3.1
2017-Oct-13 06:30N 43°39' W 005°28'2 3.4
2017-Oct-13 06:00N 43°38' W 005°26'2 3.6
2017-Oct-13 05:30N 43°37' W 005°25'2 3.5
2017-Oct-13 04:59N 43°35' W 005°23'2 3.5
2017-Oct-13 04:24N 43°34' W 005°21'1 3.1
2017-Oct-13 04:00N 43°33' W 005°20'0 0.4
2017-Oct-13 03:02N 43°33' W 005°20'0 2.2
2017-Oct-13 02:57N 43°33' W 005°20'0 0.2
2017-Oct-13 02:30N 43°33' W 005°20'0 0.4
2017-Oct-13 01:51N 43°33' W 005°20'0 0.3
2017-Oct-13 01:27N 43°33' W 005°20'0 0.6
2017-Oct-13 01:00N 43°33' W 005°20'0 0.2
2017-Oct-13 00:29N 43°33' W 005°20'0 0.2
2017-Oct-12 23:58N 43°33' W 005°20'0 1.0
2017-Oct-12 23:30N 43°33' W 005°19'1 1.8
2017-Oct-12 23:00N 43°33' W 005°21'0 0.0
2017-Oct-12 22:30N 43°33' W 005°21'0 0.2
2017-Oct-12 22:00N 43°33' W 005°20'0 0.4
2017-Oct-12 21:30N 43°33' W 005°20'0 0.5
2017-Oct-12 20:59N 43°33' W 005°20'0 0.4
2017-Oct-12 20:30N 43°33' W 005°20'0 0.4
2017-Oct-12 20:00N 43°33' W 005°20'3 6.7
2017-Oct-12 19:30N 43°36' W 005°22'5 9.3
2017-Oct-12 19:00N 43°40' W 005°25'3 5.2
2017-Oct-12 18:27N 43°38' W 005°23'1 2.9
2017-Oct-12 17:57N 43°38' W 005°21'2 5.0
2017-Oct-12 17:29N 43°40' W 005°18'3 7.2
2017-Oct-12 17:00N 43°42' W 005°22'3 5.1
2017-Oct-12 16:29N 43°45' W 005°21'7 8.8
2017-Oct-12 15:41N 43°52' W 005°21'0 1.2
2017-Oct-12 15:30N 43°52' W 005°21'1 2.8
2017-Oct-12 15:00N 43°53' W 005°23'3 2.4
2017-Oct-12 13:45N 43°52' W 005°19'5 8.5
2017-Oct-12 13:09N 43°47' W 005°22'0 2.2
2017-Oct-12 12:56N 43°47' W 005°22'1 1.7
2017-Oct-12 12:30N 43°46' W 005°22'2 3.3
2017-Oct-12 11:59N 43°45' W 005°24'2 3.5
2017-Oct-12 11:30N 43°46' W 005°27'1 2.3
2017-Oct-12 11:00N 43°44' W 005°26'2 5.0
2017-Oct-12 10:30N 43°43' W 005°29'1 2.9
2017-Oct-12 10:00N 43°41' W 005°30'1 1.7
2017-Oct-12 09:30N 43°42' W 005°31'2 3.5
2017-Oct-12 09:00N 43°42' W 005°33'4 8.4
2017-Oct-12 08:30N 43°39' W 005°37'0 0.7
2017-Oct-12 08:00N 43°39' W 005°38'1 2.1
2017-Oct-12 07:30N 43°40' W 005°39'2 3.4
2017-Oct-12 07:00N 43°40' W 005°42'1 1.3
2017-Oct-12 06:30N 43°41' W 005°42'2 3.8
2017-Oct-12 06:00N 43°40' W 005°40'2 3.8
2017-Oct-12 05:30N 43°39' W 005°38'2 3.5
2017-Oct-12 05:00N 43°38' W 005°36'2 3.6
2017-Oct-12 04:30N 43°37' W 005°34'2 3.3
2017-Oct-12 04:00N 43°35' W 005°32'0 0.6
2017-Oct-12 03:30N 43°35' W 005°32'0 0.4
2017-Oct-12 03:00N 43°35' W 005°33'0 0.7
2017-Oct-12 02:30N 43°35' W 005°33'1 1.4
2017-Oct-12 02:00N 43°36' W 005°32'0 0.6
2017-Oct-12 01:30N 43°36' W 005°33'0 0.3
2017-Oct-12 01:00N 43°35' W 005°33'0 0.2
2017-Oct-12 00:30N 43°35' W 005°33'0 0.3
2017-Oct-11 23:59N 43°35' W 005°33'0 0.4
2017-Oct-11 23:30N 43°35' W 005°33'0 0.3
2017-Oct-11 23:00N 43°35' W 005°33'0 0.2
2017-Oct-11 22:30N 43°35' W 005°33'1 1.8
2017-Oct-11 22:00N 43°35' W 005°32'0 0.5
2017-Oct-11 21:30N 43°35' W 005°32'0 0.3
2017-Oct-11 21:00N 43°35' W 005°32'0 0.3
2017-Oct-11 20:30N 43°35' W 005°33'1 2.9
2017-Oct-11 20:00N 43°36' W 005°34'5 9.8
2017-Oct-11 19:30N 43°40' W 005°37'510.0
2017-Oct-11 19:00N 43°45' W 005°40'3 6.4
2017-Oct-11 18:30N 43°47' W 005°43'4 8.0
2017-Oct-11 18:00N 43°43' W 005°43'2 4.5
2017-Oct-11 17:30N 43°41' W 005°43'3 5.9
2017-Oct-11 17:00N 43°38' W 005°44'5 0.3
2017-Oct-10 23:56N 43°34' W 005°42'0 0.0
2017-Oct-10 23:20N 43°34' W 005°42'0 0.0
2017-Oct-10 22:57N 43°34' W 005°42'0 0.0
2017-Oct-10 22:27N 43°34' W 005°42'0 0.0
2017-Oct-10 17:57N 43°34' W 005°42'2 4.5
2017-Oct-10 17:30N 43°35' W 005°40'5 9.7
2017-Oct-10 17:00N 43°40' W 005°39'510.3
2017-Oct-10 16:30N 43°45' W 005°36'510.1
2017-Oct-10 16:00N 43°49' W 005°34'610.5
2017-Oct-10 15:29N 43°55' W 005°31'1 3.1
2017-Oct-10 15:00N 43°56' W 005°31'2 2.0
2017-Oct-10 13:59N 43°56' W 005°34'2 4.1
2017-Oct-10 13:30N 43°56' W 005°36'2 4.8
2017-Oct-10 13:00N 43°54' W 005°37'2 2.1
2017-Oct-10 12:14N 43°54' W 005°35'1 3.7
2017-Oct-10 11:57N 43°53' W 005°34'1 1.6
2017-Oct-10 11:30N 43°53' W 005°33'2 4.0
2017-Oct-10 11:00N 43°51' W 005°33'3 5.4
2017-Oct-10 10:24N 43°48' W 005°32'0 1.2
2017-Oct-10 10:00N 43°48' W 005°33'1 2.9
2017-Oct-10 09:30N 43°47' W 005°35'3 5.7
2017-Oct-10 09:00N 43°48' W 005°39'6 9.7
2017-Oct-10 08:24N 43°51' W 005°45'0 0.8
2017-Oct-10 07:56N 43°51' W 005°45'1 2.4
2017-Oct-10 07:30N 43°51' W 005°47'2 2.9
2017-Oct-10 06:57N 43°50' W 005°49'1 1.7
2017-Oct-10 06:29N 43°51' W 005°49'2 3.9
2017-Oct-10 05:59N 43°49' W 005°50'3 6.2
2017-Oct-10 05:29N 43°46' W 005°52'3 6.1
2017-Oct-10 05:00N 43°43' W 005°53'3 6.6
2017-Oct-10 04:29N 43°40' W 005°54'1 2.4
2017-Oct-10 03:58N 43°39' W 005°54'0 0.2
2017-Oct-10 03:30N 43°39' W 005°54'0 0.2
2017-Oct-10 02:56N 43°39' W 005°55'0 0.1
2017-Oct-10 01:54N 43°39' W 005°55'0 0.2
2017-Oct-10 01:30N 43°38' W 005°55'0 0.2
2017-Oct-10 00:59N 43°38' W 005°55'0 0.3
2017-Oct-10 00:19N 43°39' W 005°55'1 1.2
2017-Oct-09 23:52N 43°39' W 005°55'0 0.3
2017-Oct-09 23:30N 43°39' W 005°55'0 0.2
2017-Oct-09 23:00N 43°39' W 005°55'0 0.1
2017-Oct-09 22:23N 43°39' W 005°55'0 0.6
2017-Oct-09 21:58N 43°39' W 005°55'1 2.6
2017-Oct-09 21:27N 43°39' W 005°56'0 0.2
2017-Oct-09 20:56N 43°39' W 005°56'0 0.3
2017-Oct-09 19:58N 43°39' W 005°56'0 0.3
2017-Oct-09 19:25N 43°39' W 005°56'0 0.6
2017-Oct-09 19:00N 43°39' W 005°56'4 7.0
2017-Oct-09 18:29N 43°40' W 006°00'3 6.1
2017-Oct-09 18:00N 43°43' W 006°01'2 3.6
2017-Oct-09 17:26N 43°45' W 006°00'3 5.0
2017-Oct-09 16:54N 43°48' W 006°01'2 5.6
2017-Oct-09 16:29N 43°50' W 005°60'2 3.6
2017-Oct-09 16:00N 43°50' W 006°02'5 9.8
2017-Oct-09 15:30N 43°51' W 006°09'3 6.0
2017-Oct-09 14:59N 43°52' W 006°13'1 1.0
2017-Oct-09 14:13N 43°51' W 006°13'1 3.0
2017-Oct-09 13:53N 43°50' W 006°12'2 4.9
2017-Oct-09 13:30N 43°49' W 006°11'3 6.4
2017-Oct-09 13:00N 43°47' W 006°07'2 2.5
2017-Oct-09 12:01N 43°46' W 006°04'0 5.2
2017-Oct-09 12:00N 43°46' W 006°04'2 3.5
2017-Oct-09 11:30N 43°44' W 006°05'1 2.7
2017-Oct-09 11:00N 43°43' W 006°06'1 2.7
2017-Oct-09 10:30N 43°41' W 006°06'0 0.7
2017-Oct-09 10:00N 43°41' W 006°06'0 0.7
2017-Oct-09 09:30N 43°41' W 006°06'2 3.1
2017-Oct-09 09:00N 43°41' W 006°03'2 4.1
2017-Oct-09 08:30N 43°39' W 006°03'2 4.7
2017-Oct-09 08:00N 43°37' W 006°05'1 2.4
2017-Oct-09 07:30N 43°36' W 006°06'2 3.6
2017-Oct-09 07:00N 43°35' W 006°07'2 3.1
2017-Oct-09 06:26N 43°36' W 006°06'1 1.2
2017-Oct-09 06:00N 43°37' W 006°06'0 0.6
2017-Oct-09 05:30N 43°36' W 006°06'0 0.5
2017-Oct-09 05:00N 43°36' W 006°06'0 0.4
2017-Oct-09 04:30N 43°36' W 006°06'0 0.4
2017-Oct-09 04:00N 43°36' W 006°06'0 0.3
2017-Oct-09 03:30N 43°35' W 006°06'0 0.5
2017-Oct-09 02:57N 43°35' W 006°05'2 1.5
2017-Oct-09 01:55N 43°36' W 006°04'3 6.6
2017-Oct-09 01:25N 43°38' W 005°60'0 0.7
2017-Oct-09 01:00N 43°38' W 005°59'0 0.2
2017-Oct-09 00:30N 43°38' W 005°60'0 0.2
2017-Oct-09 00:00N 43°38' W 005°60'0 0.4
2017-Oct-08 23:30N 43°38' W 005°60'0 0.4
2017-Oct-08 23:00N 43°38' W 006°00'0 0.4
2017-Oct-08 22:30N 43°38' W 006°00'0 0.4
2017-Oct-08 22:00N 43°38' W 006°01'0 0.3
2017-Oct-08 21:29N 43°37' W 006°01'0 0.3
2017-Oct-08 21:00N 43°37' W 006°01'0 0.1
2017-Oct-08 20:30N 43°37' W 006°01'0 0.2
2017-Oct-08 20:00N 43°37' W 006°01'0 0.3
2017-Oct-08 19:30N 43°37' W 006°01'0 0.3
2017-Oct-08 18:59N 43°37' W 006°01'0 0.4
2017-Oct-08 18:30N 43°37' W 006°01'0 0.4
2017-Oct-08 18:00N 43°37' W 006°01'2 4.0
2017-Oct-08 17:30N 43°37' W 006°03'4 8.6
2017-Oct-08 17:00N 43°38' W 006°09'3 5.1
2017-Oct-08 16:30N 43°38' W 006°13'510.2
2017-Oct-08 16:00N 43°38' W 006°20'2 4.6
2017-Oct-08 15:30N 43°39' W 006°23'4 8.7
2017-Oct-08 15:00N 43°42' W 006°19'1 2.1
2017-Oct-08 14:30N 43°42' W 006°17'2 3.7
2017-Oct-08 13:51N 43°41' W 006°14'3 9.1
2017-Oct-08 13:30N 43°44' W 006°16'2 4.5
2017-Oct-08 13:00N 43°46' W 006°17'1 1.7
2017-Oct-08 12:30N 43°46' W 006°19'2 3.5
2017-Oct-08 12:00N 43°46' W 006°21'1 1.9
2017-Oct-08 11:30N 43°46' W 006°22'1 2.0
2017-Oct-08 11:00N 43°45' W 006°23'2 3.8
2017-Oct-08 10:30N 43°44' W 006°24'1 1.1
2017-Oct-08 09:58N 43°43' W 006°24'1 2.7
2017-Oct-08 09:30N 43°43' W 006°26'2 4.9
2017-Oct-08 09:00N 43°44' W 006°29'4 8.8
2017-Oct-08 08:30N 43°47' W 006°33'13 2.0
2017-Oct-08 02:00N 43°35' W 006°39'0 0.4
2017-Oct-08 01:13N 43°35' W 006°39'0 0.2
2017-Oct-08 01:00N 43°35' W 006°39'0 0.3
2017-Oct-08 00:30N 43°35' W 006°39'0 0.4
2017-Oct-08 00:00N 43°35' W 006°39'3 5.1
2017-Oct-07 23:28N 43°35' W 006°43'1 1.4
2017-Oct-07 22:56N 43°35' W 006°44'0 0.1
2017-Oct-07 22:04N 43°35' W 006°44'0 0.0
2017-Oct-07 22:00N 43°35' W 006°44'0 0.1
2017-Oct-07 20:59N 43°35' W 006°44'0 0.1
2017-Oct-07 20:24N 43°35' W 006°44'1 0.8
2017-Oct-07 19:06N 43°36' W 006°44'1 6.5
2017-Oct-07 19:00N 43°36' W 006°45'1 1.8
2017-Oct-07 18:30N 43°37' W 006°45'1 2.8
2017-Oct-07 18:00N 43°39' W 006°45'4 7.9
2017-Oct-07 17:30N 43°43' W 006°45'6 7.2
2017-Oct-07 16:44N 43°48' W 006°45'2 9.7
2017-Oct-07 16:30N 43°50' W 006°45'2 4.2
2017-Oct-07 16:00N 43°53' W 006°45'5 9.1
2017-Oct-07 15:30N 43°57' W 006°47'2 4.1
2017-Oct-07 15:00N 43°59' W 006°48'1 1.7
2017-Oct-07 14:30N 43°58' W 006°47'1 2.9
2017-Oct-07 14:00N 43°58' W 006°45'3 6.9
2017-Oct-07 13:30N 43°56' W 006°41'3 5.3
2017-Oct-07 13:00N 43°54' W 006°39'1 2.6
2017-Oct-07 12:30N 43°53' W 006°37'2 3.8
2017-Oct-07 12:00N 43°52' W 006°35'1 2.5
2017-Oct-07 11:25N 43°54' W 006°35'1 1.4
2017-Oct-07 10:57N 43°54' W 006°34'  

Dump ship's entire track history